createdAt,value
2023-04-22T00:00:34.152Z,22.72
2023-04-22T00:05:37.766Z,22.70
2023-04-22T00:10:42.150Z,22.63
2023-04-22T00:15:44.912Z,22.59
2023-04-22T00:20:47.686Z,22.55
2023-04-22T00:25:52.145Z,22.53
2023-04-22T00:30:54.927Z,22.47
2023-04-22T00:35:57.813Z,22.42
2023-04-22T00:41:02.224Z,22.40
2023-04-22T00:46:05.259Z,22.35
2023-04-22T00:51:08.793Z,22.35
2023-04-22T00:56:13.561Z,22.33
2023-04-22T01:01:16.478Z,22.28
2023-04-22T01:06:19.794Z,22.27
2023-04-22T01:11:24.305Z,22.23
2023-04-22T01:16:29.348Z,22.18
2023-04-22T01:21:34.285Z,22.13
2023-04-22T01:26:38.719Z,22.10
2023-04-22T01:31:41.608Z,22.04
2023-04-22T01:36:45.032Z,21.99
2023-04-22T01:41:49.128Z,21.95
2023-04-22T01:46:51.918Z,21.89
2023-04-22T01:51:54.801Z,21.84
2023-04-22T01:56:59.485Z,21.80
2023-04-22T02:02:02.268Z,21.74
2023-04-22T02:07:05.310Z,21.68
2023-04-22T02:12:10.521Z,21.66
2023-04-22T02:17:17.733Z,21.61
2023-04-22T02:22:21.813Z,21.51
2023-04-22T02:27:28.446Z,21.47
2023-04-22T02:32:31.544Z,21.42
2023-04-22T02:37:34.800Z,21.23
2023-04-22T02:42:38.887Z,21.23
2023-04-22T02:47:41.728Z,21.21
2023-04-22T02:52:44.597Z,21.11
2023-04-22T02:57:48.738Z,21.03
2023-04-22T03:02:52.055Z,20.93
2023-04-22T03:07:58.314Z,20.93
2023-04-22T03:13:02.411Z,20.89
2023-04-22T03:18:05.892Z,20.82
2023-04-22T03:23:09.026Z,20.76
2023-04-22T03:28:14.549Z,20.73
2023-04-22T03:33:17.856Z,20.67
2023-04-22T03:38:31.623Z,20.63
2023-04-22T03:43:35.860Z,20.61
2023-04-22T03:48:42.969Z,20.62
2023-04-22T03:53:52.703Z,20.58
2023-04-22T03:58:59.366Z,20.48
2023-04-22T04:04:02.912Z,20.48
2023-04-22T04:09:14.436Z,20.56
2023-04-22T04:14:18.766Z,20.51
2023-04-22T04:19:23.295Z,20.45
2023-04-22T04:24:26.901Z,20.42
2023-04-22T04:29:37.792Z,20.37
2023-04-22T04:34:47.532Z,20.45
2023-04-22T04:39:53.634Z,20.39
2023-04-22T04:45:00.790Z,20.44
2023-04-22T04:50:05.593Z,20.44
2023-04-22T04:55:10.612Z,20.40
2023-04-22T05:00:15.672Z,20.44
2023-04-22T05:05:19.919Z,20.51
2023-04-22T05:10:23.267Z,20.46
2023-04-22T05:15:27.615Z,20.50
2023-04-22T05:20:30.946Z,20.55
2023-04-22T05:25:34.984Z,20.60
2023-04-22T05:30:44.364Z,20.68
2023-04-22T05:35:47.503Z,20.65
2023-04-22T05:40:50.865Z,20.48
2023-04-22T05:45:56.557Z,20.70
2023-04-22T05:50:59.378Z,20.75
2023-04-22T05:56:05.152Z,20.76
2023-04-22T06:01:11.157Z,20.78
2023-04-22T06:06:25.843Z,20.81
2023-04-22T06:11:29.564Z,20.83
2023-04-22T06:16:34.659Z,20.83
2023-04-22T06:21:40.037Z,20.81
2023-04-22T06:26:43.016Z,20.83
2023-04-22T06:31:47.629Z,20.86
2023-04-22T06:36:51.216Z,20.83
2023-04-22T06:41:54.146Z,20.82
2023-04-22T06:47:36.869Z,20.82
2023-04-22T06:52:49.558Z,20.82
2023-04-22T06:57:52.328Z,20.87
2023-04-22T07:02:56.913Z,20.91
2023-04-22T07:08:00.742Z,20.96
2023-04-22T07:13:03.893Z,20.93
2023-04-22T07:18:08.200Z,20.85
2023-04-22T07:23:11.137Z,21.01
2023-04-22T07:28:13.928Z,20.98
2023-04-22T07:33:18.052Z,20.98
2023-04-22T07:38:20.921Z,20.76
2023-04-22T07:43:23.696Z,20.82
2023-04-22T07:48:27.804Z,20.99
2023-04-22T07:53:30.633Z,21.08
2023-04-22T07:58:33.525Z,21.18
2023-04-22T08:03:37.931Z,21.25
2023-04-22T08:08:41.005Z,21.29
2023-04-22T08:13:43.813Z,21.35
2023-04-22T08:18:47.963Z,21.44
2023-04-22T08:23:50.718Z,21.41
2023-04-22T08:28:53.483Z,21.44
2023-04-22T08:33:57.730Z,21.51
2023-04-22T08:39:00.598Z,21.28
2023-04-22T08:44:03.432Z,21.06
2023-04-22T08:49:07.749Z,20.69
2023-04-22T08:54:11.126Z,20.32
2023-04-22T08:59:14.083Z,20.32
2023-04-22T09:04:19.897Z,20.35
2023-04-22T09:09:23.602Z,20.37
2023-04-22T09:14:27.352Z,20.38
2023-04-22T09:19:31.436Z,20.38
2023-04-22T09:24:34.301Z,20.80
2023-04-22T09:29:37.488Z,20.69
2023-04-22T09:34:50.513Z,20.46
2023-04-22T09:39:53.360Z,20.76
2023-04-22T09:44:56.419Z,20.86
2023-04-22T09:50:00.874Z,20.66
2023-04-22T09:55:04.115Z,21.07
2023-04-22T10:00:10.386Z,21.25
2023-04-22T10:05:14.665Z,21.40
2023-04-22T10:10:17.751Z,21.51
2023-04-22T10:15:21.022Z,21.57
2023-04-22T10:20:25.913Z,21.65
2023-04-22T10:25:28.698Z,21.69
2023-04-22T10:30:32.759Z,21.78
2023-04-22T10:35:36.970Z,21.76
2023-04-22T10:40:39.795Z,21.87
2023-04-22T10:45:42.865Z,22.00
2023-04-22T10:50:47.304Z,22.10
2023-04-22T10:55:51.128Z,22.09
2023-04-22T11:00:59.757Z,22.18
2023-04-22T11:06:17.271Z,22.18
2023-04-22T11:11:20.125Z,22.14
2023-04-22T11:16:23.309Z,22.08
2023-04-22T11:21:27.614Z,22.14
2023-04-22T11:26:37.435Z,22.12
2023-04-22T11:31:40.821Z,22.11
2023-04-22T11:36:46.317Z,22.11
2023-04-22T11:41:49.078Z,22.18
2023-04-22T11:46:51.940Z,22.19
2023-04-22T11:51:56.965Z,22.21
2023-04-22T11:57:03.070Z,22.19
2023-04-22T12:02:06.745Z,22.05
2023-04-22T12:07:12.288Z,22.04
2023-04-22T12:12:15.780Z,22.02
2023-04-22T12:17:23.749Z,22.03
2023-04-22T12:22:28.336Z,22.03
2023-04-22T12:27:31.632Z,22.12
2023-04-22T12:32:34.594Z,22.39
2023-04-22T12:37:38.903Z,22.50
2023-04-22T12:42:41.680Z,22.43
2023-04-22T12:47:45.117Z,22.56
2023-04-22T12:52:49.241Z,22.68
2023-04-22T12:57:52.039Z,22.86
2023-04-22T13:02:55.308Z,23.06
2023-04-22T13:08:06.603Z,23.39
2023-04-22T13:13:18.483Z,23.60
2023-04-22T13:18:22.609Z,23.80
2023-04-22T13:23:27.653Z,24.00
2023-04-22T13:28:30.706Z,24.06
2023-04-22T13:33:34.633Z,24.36
2023-04-22T13:38:38.785Z,24.48
2023-04-22T13:43:41.499Z,24.50
2023-04-22T13:48:44.271Z,24.54
2023-04-22T13:53:48.398Z,24.53
2023-04-22T13:58:51.164Z,24.54
2023-04-22T14:03:54.648Z,24.63
2023-04-22T14:08:58.840Z,24.72
2023-04-22T14:14:01.724Z,24.87
2023-04-22T14:19:06.299Z,25.08
2023-04-22T14:24:10.551Z,25.52
2023-04-22T14:29:13.296Z,25.72
2023-04-22T14:34:16.088Z,25.73
2023-04-22T14:44:50.228Z,26.06
2023-04-22T14:49:53.003Z,25.90
2023-04-22T14:54:55.932Z,26.28
2023-04-22T15:00:00.051Z,26.22
2023-04-22T15:05:02.988Z,26.46
2023-04-22T15:10:07.914Z,26.82
2023-04-22T15:15:13.898Z,26.29
2023-04-22T15:20:16.900Z,26.34
2023-04-22T15:25:19.825Z,26.00
2023-04-22T15:30:24.127Z,26.35
2023-04-22T15:35:27.017Z,26.47
2023-04-22T15:40:29.797Z,26.62
2023-04-22T15:45:34.807Z,26.56
2023-04-22T15:50:38.871Z,26.66
2023-04-22T15:55:42.968Z,26.42
2023-04-22T16:00:54.267Z,26.10
2023-04-22T16:05:58.404Z,25.85
2023-04-22T16:11:01.126Z,25.60
2023-04-22T16:16:05.471Z,25.88
2023-04-22T16:21:08.271Z,25.94
2023-04-22T16:26:11.269Z,25.44
2023-04-22T16:31:17.885Z,24.87
2023-04-22T16:36:21.485Z,24.45
2023-04-22T16:41:24.272Z,24.16
2023-04-22T16:46:28.444Z,24.07
2023-04-22T16:51:31.268Z,24.23
2023-04-22T16:56:34.114Z,24.16
2023-04-22T17:01:38.255Z,23.91
2023-04-22T17:06:41.625Z,23.83
2023-04-22T17:11:44.447Z,23.69
2023-04-22T17:16:48.601Z,23.61
2023-04-22T17:21:51.897Z,23.57
2023-04-22T17:26:57.402Z,23.64
2023-04-22T17:32:02.222Z,23.48
2023-04-22T17:37:05.064Z,23.33
2023-04-22T17:42:08.853Z,23.24
2023-04-22T17:47:13.206Z,23.12
2023-04-22T17:52:16.493Z,23.07
2023-04-22T17:57:19.311Z,23.03
2023-04-22T18:02:24.999Z,22.96
2023-04-22T18:07:30.254Z,22.98
2023-04-22T18:12:34.701Z,22.88
2023-04-22T18:17:42.017Z,22.80
2023-04-22T18:22:44.808Z,22.93
2023-04-22T18:27:47.673Z,22.90
2023-04-22T18:32:52.106Z,22.95
2023-04-22T18:37:54.975Z,22.91
2023-04-22T18:42:58.147Z,22.97
2023-04-22T18:48:02.271Z,22.92
2023-04-22T18:53:05.207Z,22.94
2023-04-22T18:58:08.056Z,22.92
2023-04-22T19:03:12.752Z,22.93
2023-04-22T19:08:15.610Z,22.90
2023-04-22T19:13:29.122Z,22.92
2023-04-22T19:18:34.290Z,22.89
2023-04-22T19:23:37.935Z,22.89
2023-04-22T19:28:46.870Z,22.90
2023-04-22T19:33:51.381Z,22.92
2023-04-22T19:38:54.506Z,22.91
2023-04-22T19:43:58.886Z,22.90
2023-04-22T19:49:03.699Z,22.92
2023-04-22T19:54:07.483Z,22.92
2023-04-22T19:59:10.468Z,22.93
2023-04-22T20:04:16.045Z,23.00
2023-04-22T20:09:19.655Z,23.02
2023-04-22T20:14:23.429Z,22.96
2023-04-22T20:19:28.385Z,22.96
2023-04-22T20:24:31.263Z,22.96
2023-04-22T20:29:34.448Z,22.90
2023-04-22T20:34:39.369Z,22.97
2023-04-22T20:39:43.167Z,22.98
2023-04-22T20:44:45.947Z,22.98
2023-04-22T20:49:50.171Z,23.06
2023-04-22T20:54:55.124Z,23.05
2023-04-22T20:59:57.919Z,23.07
2023-04-22T21:05:02.267Z,23.07
2023-04-22T21:10:06.105Z,23.01
2023-04-22T21:15:10.051Z,22.99
2023-04-22T21:20:14.498Z,23.07
2023-04-22T21:25:20.765Z,23.03
2023-04-22T21:30:24.457Z,23.04
2023-04-22T21:35:29.909Z,23.06
2023-04-22T21:40:32.731Z,23.06
2023-04-22T21:45:35.874Z,23.06
2023-04-22T21:50:40.150Z,23.04
2023-04-22T21:55:42.898Z,23.11
2023-04-22T22:00:47.249Z,23.07
2023-04-22T22:05:51.781Z,23.15
2023-04-22T22:10:54.604Z,23.11
2023-04-22T22:15:57.506Z,23.17
2023-04-22T22:21:01.856Z,23.07
2023-04-22T22:26:04.650Z,23.12
2023-04-22T22:31:08.057Z,23.12
2023-04-22T22:36:12.433Z,23.14
2023-04-22T22:41:15.310Z,23.13
2023-04-22T22:46:18.187Z,23.13
2023-04-22T22:51:22.325Z,23.11
2023-04-22T22:56:25.121Z,23.14
2023-04-22T23:01:28.102Z,23.13
2023-04-22T23:06:32.810Z,23.12
2023-04-22T23:11:35.674Z,23.14
2023-04-22T23:16:38.982Z,23.18
2023-04-22T23:21:43.239Z,23.18
2023-04-22T23:26:46.517Z,23.16
2023-04-22T23:31:49.325Z,23.16
2023-04-22T23:36:53.784Z,23.15
2023-04-22T23:41:56.601Z,23.21
2023-04-22T23:46:59.374Z,23.19
2023-04-22T23:52:03.479Z,23.18
2023-04-22T23:57:06.762Z,23.14
